createdAt,value
2018-02-08T00:00:39.626Z,85.26
2018-02-08T00:03:07.044Z,85.08
2018-02-08T00:05:34.481Z,85.33
2018-02-08T00:08:01.941Z,85.51
2018-02-08T00:10:29.379Z,85.25
2018-02-08T00:12:56.805Z,85.28
2018-02-08T00:15:24.236Z,85.33
2018-02-08T00:17:51.693Z,85.57
2018-02-08T00:20:19.118Z,85.72
2018-02-08T00:22:46.532Z,85.79
2018-02-08T00:25:13.974Z,86.11
2018-02-08T00:27:41.396Z,86.14
2018-02-08T00:30:08.837Z,85.88
2018-02-08T00:32:36.271Z,85.95
2018-02-08T00:35:03.702Z,86.09
2018-02-08T00:37:31.156Z,86.18
2018-02-08T00:39:58.569Z,86.20
2018-02-08T00:42:26.013Z,86.25
2018-02-08T00:44:53.431Z,86.56
2018-02-08T00:47:20.852Z,86.44
2018-02-08T00:49:48.294Z,86.13
2018-02-08T00:52:15.742Z,86.35
2018-02-08T00:54:43.179Z,86.90
2018-02-08T00:57:10.600Z,87.14
2018-02-08T00:59:38.034Z,87.15
2018-02-08T01:02:05.485Z,87.06
2018-02-08T01:04:32.921Z,86.85
2018-02-08T01:07:00.380Z,86.88
2018-02-08T01:09:27.834Z,87.13
2018-02-08T01:11:55.276Z,87.00
2018-02-08T01:14:22.687Z,86.82
2018-02-08T01:16:50.117Z,87.24
2018-02-08T01:19:17.602Z,87.81
2018-02-08T01:21:45.025Z,88.12
2018-02-08T01:24:12.451Z,87.98
2018-02-08T01:26:39.875Z,87.70
2018-02-08T01:29:07.300Z,87.60
2018-02-08T01:31:34.744Z,87.46
2018-02-08T01:34:02.189Z,87.29
2018-02-08T01:36:29.616Z,87.11
2018-02-08T01:38:57.028Z,87.08
2018-02-08T01:41:24.478Z,87.03
2018-02-08T01:43:51.927Z,86.97
2018-02-08T01:46:19.437Z,86.63
2018-02-08T01:48:46.853Z,86.50
2018-02-08T01:51:14.305Z,86.54
2018-02-08T01:53:41.773Z,86.67
2018-02-08T01:56:09.188Z,86.83
2018-02-08T01:58:36.621Z,86.89
2018-02-08T02:01:04.033Z,87.11
2018-02-08T02:03:31.452Z,86.97
2018-02-08T02:05:58.881Z,86.50
2018-02-08T02:08:26.292Z,86.85
2018-02-08T02:10:53.732Z,86.83
2018-02-08T02:13:21.147Z,86.52
2018-02-08T02:15:48.561Z,86.69
2018-02-08T02:18:15.977Z,86.58
2018-02-08T02:20:43.388Z,86.63
2018-02-08T02:23:10.817Z,86.73
2018-02-08T02:25:38.232Z,86.71
2018-02-08T02:28:05.642Z,86.80
2018-02-08T02:30:33.056Z,86.71
2018-02-08T02:33:00.469Z,86.85
2018-02-08T02:35:27.893Z,86.95
2018-02-08T02:37:55.344Z,87.25
2018-02-08T02:40:22.749Z,87.29
2018-02-08T02:42:50.178Z,87.05
2018-02-08T02:45:17.626Z,88.05
2018-02-08T02:47:45.021Z,88.19
2018-02-08T02:50:12.437Z,87.65
2018-02-08T02:52:39.850Z,87.56
2018-02-08T02:55:07.264Z,87.39
2018-02-08T02:57:34.697Z,87.42
2018-02-08T03:00:02.134Z,87.20
2018-02-08T03:02:29.560Z,86.79
2018-02-08T03:04:56.969Z,86.71
2018-02-08T03:07:24.394Z,86.72
2018-02-08T03:09:51.805Z,87.02
2018-02-08T03:12:19.236Z,87.56
2018-02-08T03:14:46.643Z,87.97
2018-02-08T03:17:14.058Z,88.17
2018-02-08T03:19:41.481Z,88.08
2018-02-08T03:22:08.884Z,88.13
2018-02-08T03:24:36.313Z,87.86
2018-02-08T03:27:03.724Z,87.56
2018-02-08T03:29:31.148Z,87.15
2018-02-08T03:31:58.560Z,87.34
2018-02-08T03:34:25.989Z,87.48
2018-02-08T03:36:53.412Z,87.33
2018-02-08T03:39:20.824Z,87.03
2018-02-08T03:41:48.241Z,87.17
2018-02-08T03:44:15.669Z,87.28
2018-02-08T03:46:43.080Z,87.18
2018-02-08T03:49:10.523Z,86.82
2018-02-08T03:51:37.988Z,86.61
2018-02-08T03:54:05.393Z,87.03
2018-02-08T03:56:32.805Z,87.23
2018-02-08T03:59:00.231Z,86.92
2018-02-08T04:01:27.649Z,86.94
2018-02-08T04:03:55.060Z,87.10
2018-02-08T04:06:22.473Z,87.24
2018-02-08T04:08:49.892Z,86.70
2018-02-08T04:11:17.308Z,86.53
2018-02-08T04:13:44.740Z,86.36
2018-02-08T04:16:12.152Z,86.07
2018-02-08T04:18:39.572Z,85.88
2018-02-08T04:21:06.981Z,86.29
2018-02-08T04:23:34.392Z,86.38
2018-02-08T04:26:01.821Z,86.59
2018-02-08T04:28:29.240Z,86.48
2018-02-08T04:30:56.652Z,86.46
2018-02-08T04:33:24.070Z,86.47
2018-02-08T04:35:51.488Z,86.57
2018-02-08T04:38:24.628Z,86.41
2018-02-08T04:41:03.860Z,86.65
2018-02-08T04:43:42.876Z,86.80
2018-02-08T04:46:21.837Z,86.38
2018-02-08T04:48:49.260Z,86.38
2018-02-08T04:51:16.681Z,86.36
2018-02-08T04:53:44.102Z,86.48
2018-02-08T04:56:11.521Z,86.92
2018-02-08T04:58:38.929Z,86.64
2018-02-08T05:01:06.356Z,86.75
2018-02-08T05:03:33.776Z,86.98
2018-02-08T05:06:01.197Z,87.41
2018-02-08T05:08:28.614Z,87.24
2018-02-08T05:10:56.023Z,87.03
2018-02-08T05:13:23.457Z,86.83
2018-02-08T05:15:50.877Z,86.60
2018-02-08T05:18:18.288Z,86.50
2018-02-08T05:20:45.708Z,86.69
2018-02-08T05:23:13.127Z,86.61
2018-02-08T05:25:40.552Z,86.76
2018-02-08T05:28:07.960Z,87.26
2018-02-08T05:30:35.376Z,87.32
2018-02-08T05:33:02.798Z,87.42
2018-02-08T05:35:30.208Z,87.40
2018-02-08T05:37:57.637Z,87.61
2018-02-08T05:40:25.052Z,87.49
2018-02-08T05:42:52.461Z,87.50
2018-02-08T05:45:19.937Z,87.43
2018-02-08T05:47:47.348Z,87.75
2018-02-08T05:50:14.781Z,87.68
2018-02-08T05:52:42.192Z,87.86
2018-02-08T05:55:09.607Z,87.84
2018-02-08T05:57:37.025Z,87.77
2018-02-08T06:00:04.456Z,87.80
2018-02-08T06:02:32.357Z,87.62
2018-02-08T06:04:59.777Z,87.63
2018-02-08T06:07:27.183Z,87.67
2018-02-08T06:09:54.604Z,87.69
2018-02-08T06:12:22.021Z,87.78
2018-02-08T06:14:49.460Z,87.73
2018-02-08T06:17:16.868Z,88.00
2018-02-08T06:19:44.288Z,87.57
2018-02-08T06:22:11.712Z,87.65
2018-02-08T06:24:39.120Z,87.67
2018-02-08T06:27:06.556Z,87.62
2018-02-08T06:29:33.974Z,87.44
2018-02-08T06:32:01.395Z,87.17
2018-02-08T06:34:28.813Z,86.74
2018-02-08T06:36:56.227Z,86.75
2018-02-08T06:39:23.675Z,87.12
2018-02-08T06:41:51.085Z,87.43
2018-02-08T06:44:18.502Z,87.37
2018-02-08T06:46:45.927Z,87.04
2018-02-08T06:49:13.337Z,86.98
2018-02-08T06:51:40.781Z,87.29
2018-02-08T06:54:08.428Z,87.24
2018-02-08T06:56:35.869Z,87.06
2018-02-08T06:59:03.277Z,87.02
2018-02-08T07:01:30.721Z,87.18
2018-02-08T07:03:58.145Z,87.35
2018-02-08T07:06:25.644Z,87.38
2018-02-08T07:08:53.517Z,87.57
2018-02-08T07:11:21.059Z,87.67
2018-02-08T07:13:48.515Z,87.46
2018-02-08T07:16:16.020Z,87.39
2018-02-08T07:18:43.440Z,87.35
2018-02-08T07:21:10.863Z,87.33
2018-02-08T07:23:38.281Z,87.32
2018-02-08T07:26:05.758Z,87.50
2018-02-08T07:28:33.165Z,87.40
2018-02-08T07:31:00.576Z,87.60
2018-02-08T07:33:28.005Z,87.33
2018-02-08T07:35:55.427Z,87.26
2018-02-08T07:38:22.837Z,87.21
2018-02-08T07:40:50.363Z,87.11
2018-02-08T07:43:17.776Z,87.13
2018-02-08T07:45:45.198Z,87.20
2018-02-08T07:48:12.604Z,87.09
2018-02-08T07:50:40.957Z,87.19
2018-02-08T07:53:08.410Z,87.57
2018-02-08T07:55:35.843Z,87.92
2018-02-08T07:58:03.272Z,88.07
2018-02-08T08:00:31.296Z,88.09
2018-02-08T08:02:58.705Z,87.87
2018-02-08T08:05:26.118Z,87.89
2018-02-08T08:07:53.537Z,87.91
2018-02-08T08:10:20.953Z,87.46
2018-02-08T08:12:48.364Z,87.51
2018-02-08T08:15:15.791Z,87.60
2018-02-08T08:17:43.200Z,87.86
2018-02-08T08:20:10.618Z,87.97
2018-02-08T08:22:38.038Z,87.71
2018-02-08T08:25:05.460Z,87.18
2018-02-08T08:27:32.897Z,87.01
2018-02-08T08:30:00.305Z,86.63
2018-02-08T08:32:27.721Z,86.48
2018-02-08T08:34:55.132Z,86.35
2018-02-08T08:37:22.585Z,86.53
2018-02-08T08:39:50.053Z,85.94
2018-02-08T08:42:17.460Z,85.55
2018-02-08T08:44:44.875Z,85.20
2018-02-08T08:47:12.325Z,85.61
2018-02-08T08:49:39.740Z,85.86
2018-02-08T08:52:07.162Z,85.18
2018-02-08T08:54:34.573Z,85.40
2018-02-08T08:57:01.986Z,85.58
2018-02-08T08:59:29.417Z,84.83
2018-02-08T09:01:56.837Z,85.17
2018-02-08T09:04:24.289Z,84.42
2018-02-08T09:06:51.684Z,83.40
2018-02-08T09:09:19.100Z,82.99
2018-02-08T09:11:46.520Z,82.39
2018-02-08T09:14:13.933Z,82.64
2018-02-08T09:16:41.372Z,82.75
2018-02-08T09:19:08.788Z,82.12
2018-02-08T09:21:36.213Z,81.61
2018-02-08T09:24:03.626Z,81.24
2018-02-08T09:26:31.040Z,81.21
2018-02-08T09:28:58.460Z,80.62
2018-02-08T09:31:25.876Z,80.39
2018-02-08T09:33:53.287Z,80.12
2018-02-08T09:36:20.701Z,78.73
2018-02-08T09:38:48.116Z,78.20
2018-02-08T09:41:15.552Z,79.04
2018-02-08T09:43:42.976Z,79.88
2018-02-08T09:46:10.377Z,79.74
2018-02-08T09:48:37.795Z,79.48
2018-02-08T09:51:05.204Z,79.09
2018-02-08T09:53:32.625Z,79.08
2018-02-08T09:56:00.039Z,79.08
2018-02-08T09:58:27.451Z,78.92
2018-02-08T10:00:54.872Z,78.94
2018-02-08T10:03:22.297Z,77.42
2018-02-08T10:05:49.728Z,77.91
2018-02-08T10:08:17.948Z,77.49
2018-02-08T10:10:45.358Z,76.83
2018-02-08T10:13:12.772Z,76.81
2018-02-08T10:15:40.186Z,76.44
2018-02-08T10:18:07.604Z,74.61
2018-02-08T10:20:35.021Z,74.74
2018-02-08T10:23:02.440Z,75.58
2018-02-08T10:25:29.857Z,74.36
2018-02-08T10:27:57.268Z,75.42
2018-02-08T10:30:24.694Z,74.60
2018-02-08T10:32:52.108Z,73.82
2018-02-08T10:35:19.524Z,72.46
2018-02-08T10:37:46.941Z,71.86
2018-02-08T10:40:14.366Z,69.25
2018-02-08T10:42:41.781Z,69.13
2018-02-08T10:45:09.196Z,68.09
2018-02-08T10:47:36.627Z,67.95
2018-02-08T10:50:04.044Z,68.12
2018-02-08T10:52:31.480Z,67.51
2018-02-08T10:54:58.901Z,65.06
2018-02-08T10:57:26.324Z,66.61
2018-02-08T10:59:53.752Z,67.29
2018-02-08T11:02:21.192Z,65.81
2018-02-08T11:04:48.618Z,66.54
2018-02-08T11:07:16.040Z,65.80
2018-02-08T11:09:43.751Z,64.95
2018-02-08T11:12:11.364Z,64.41
2018-02-08T11:14:38.781Z,65.19
2018-02-08T11:17:06.215Z,63.96
2018-02-08T11:19:33.632Z,63.25
2018-02-08T11:22:01.044Z,65.61
2018-02-08T11:24:28.463Z,64.43
2018-02-08T11:26:55.881Z,63.92
2018-02-08T11:29:23.313Z,63.97
2018-02-08T11:31:50.736Z,62.57
2018-02-08T11:34:18.144Z,62.26
2018-02-08T11:36:45.577Z,62.20
2018-02-08T11:39:12.997Z,60.18
2018-02-08T11:41:40.418Z,61.10
2018-02-08T11:44:07.820Z,60.96
2018-02-08T11:46:35.233Z,61.04
2018-02-08T11:49:02.653Z,61.88
2018-02-08T11:51:30.089Z,61.14
2018-02-08T11:53:57.713Z,62.50
2018-02-08T11:56:25.125Z,62.42
2018-02-08T11:58:52.576Z,60.23
2018-02-08T12:01:21.472Z,59.55
2018-02-08T12:03:53.332Z,61.43
2018-02-08T12:06:21.978Z,61.48
2018-02-08T12:08:49.393Z,59.90
2018-02-08T12:11:16.838Z,57.93
2018-02-08T12:13:44.276Z,59.62
2018-02-08T12:16:11.684Z,58.62
2018-02-08T12:18:39.120Z,55.52
2018-02-08T12:21:06.570Z,56.65
2018-02-08T12:23:34.004Z,56.35
2018-02-08T12:26:01.470Z,58.31
2018-02-08T12:28:28.880Z,56.49
2018-02-08T12:30:56.321Z,54.87
2018-02-08T12:33:23.792Z,55.83
2018-02-08T12:35:51.224Z,56.92
2018-02-08T12:38:18.644Z,56.55
2018-02-08T12:40:46.111Z,55.09
2018-02-08T12:43:13.541Z,54.50
2018-02-08T12:45:40.974Z,56.80
2018-02-08T12:48:08.378Z,54.28
2018-02-08T12:50:35.804Z,53.39
2018-02-08T12:53:03.212Z,53.31
2018-02-08T12:55:30.635Z,53.84
2018-02-08T12:57:58.041Z,49.28
2018-02-08T13:00:25.446Z,53.19
2018-02-08T13:02:52.856Z,51.64
2018-02-08T13:05:20.317Z,50.90
2018-02-08T13:07:47.896Z,54.84
2018-02-08T13:10:16.421Z,52.24
2018-02-08T13:12:43.826Z,53.84
2018-02-08T13:15:12.101Z,52.50
2018-02-08T13:17:39.507Z,54.09
2018-02-08T13:20:06.972Z,53.87
2018-02-08T13:22:34.395Z,53.84
2018-02-08T13:25:01.808Z,55.69
2018-02-08T13:27:29.326Z,51.62
2018-02-08T13:29:56.742Z,55.10
2018-02-08T13:32:24.181Z,52.81
2018-02-08T13:34:51.586Z,53.09
2018-02-08T13:37:19.028Z,51.87
2018-02-08T13:40:00.137Z,53.04
2018-02-08T13:42:28.116Z,51.94
2018-02-08T13:44:55.541Z,52.00
2018-02-08T13:47:22.945Z,50.99
2018-02-08T13:49:55.974Z,53.28
2018-02-08T13:55:37.884Z,52.59
2018-02-08T13:58:08.173Z,51.71
2018-02-08T14:00:40.449Z,52.72
2018-02-08T14:03:07.896Z,53.41
2018-02-08T14:05:35.296Z,55.01
2018-02-08T14:08:02.706Z,53.37
2018-02-08T14:10:30.140Z,52.66
2018-02-08T14:12:57.665Z,53.00
2018-02-08T14:15:25.087Z,53.90
2018-02-08T14:17:52.481Z,53.34
2018-02-08T14:20:19.888Z,52.49
2018-02-08T14:22:47.328Z,53.63
2018-02-08T14:25:14.732Z,53.98
2018-02-08T14:27:42.137Z,55.18
2018-02-08T14:30:09.557Z,55.33
2018-02-08T14:32:36.972Z,55.41
2018-02-08T14:35:04.409Z,54.91
2018-02-08T14:37:31.826Z,56.61
2018-02-08T14:39:59.236Z,57.06
2018-02-08T14:42:26.648Z,56.11
2018-02-08T14:44:54.052Z,56.24
2018-02-08T14:47:21.478Z,55.47
2018-02-08T14:49:48.889Z,55.61
2018-02-08T14:52:16.309Z,54.85
2018-02-08T14:54:43.745Z,55.86
2018-02-08T14:57:11.154Z,56.55
2018-02-08T14:59:38.572Z,56.50
2018-02-08T15:02:05.988Z,56.13
2018-02-08T15:04:33.404Z,56.88
2018-02-08T15:07:00.832Z,57.36
2018-02-08T15:09:28.241Z,57.08
2018-02-08T15:11:55.661Z,57.92
2018-02-08T15:14:23.080Z,57.37
2018-02-08T15:16:50.496Z,58.52
2018-02-08T15:19:17.926Z,58.66
2018-02-08T15:21:45.351Z,58.15
2018-02-08T15:24:12.776Z,58.88
2018-02-08T15:26:40.201Z,59.41
2018-02-08T15:29:07.620Z,59.57
2018-02-08T15:31:35.051Z,59.04
2018-02-08T15:34:02.464Z,60.22
2018-02-08T15:36:29.890Z,60.06
2018-02-08T15:38:57.327Z,60.69
2018-02-08T15:41:25.040Z,62.11
2018-02-08T15:43:52.839Z,61.45
2018-02-08T15:46:21.073Z,61.31
2018-02-08T15:48:48.922Z,62.65
2018-02-08T15:51:16.856Z,61.77
2018-02-08T15:53:48.958Z,62.51
2018-02-08T15:56:17.326Z,62.12
2018-02-08T15:58:45.968Z,63.07
2018-02-08T16:01:15.490Z,62.71
2018-02-08T16:03:43.337Z,63.28
2018-02-08T16:06:11.211Z,62.99
2018-02-08T16:08:43.524Z,64.16
2018-02-08T16:11:12.057Z,64.24
2018-02-08T16:13:48.678Z,64.77
2018-02-08T16:16:18.279Z,64.67
2018-02-08T16:18:48.191Z,65.26
2018-02-08T16:21:16.141Z,64.77
2018-02-08T16:23:44.307Z,65.63
2018-02-08T16:26:13.189Z,65.60
2018-02-08T16:28:41.926Z,66.51
2018-02-08T16:31:09.828Z,65.94
2018-02-08T16:33:38.281Z,66.25
2018-02-08T16:36:06.634Z,65.47
2018-02-08T16:38:48.598Z,66.68
2018-02-08T16:41:19.729Z,66.33
2018-02-08T16:43:47.232Z,66.70
2018-02-08T16:46:16.555Z,67.25
2018-02-08T16:48:51.490Z,67.35
2018-02-08T16:51:24.817Z,68.15
2018-02-08T16:53:55.754Z,68.22
2018-02-08T16:56:24.814Z,69.36
2018-02-08T16:58:55.094Z,69.40
2018-02-08T17:01:26.730Z,69.66
2018-02-08T17:06:29.804Z,69.74
2018-02-08T17:09:03.509Z,69.77
2018-02-08T17:11:30.950Z,70.31
2018-02-08T17:13:58.399Z,70.55
2018-02-08T17:16:25.907Z,71.13
2018-02-08T17:18:53.288Z,71.27
2018-02-08T17:21:20.712Z,71.19
2018-02-08T17:23:48.142Z,71.06
2018-02-08T17:26:15.699Z,71.31
2018-02-08T17:28:43.120Z,71.14
2018-02-08T17:31:10.533Z,70.94
2018-02-08T17:33:38.443Z,71.19
2018-02-08T17:36:05.893Z,71.63
2018-02-08T17:38:43.241Z,71.65
2018-02-08T17:41:11.568Z,71.64
2018-02-08T17:43:38.992Z,71.59
2018-02-08T17:46:06.412Z,71.78
2018-02-08T17:48:46.792Z,72.51
2018-02-08T17:51:14.204Z,72.30
2018-02-08T17:53:41.628Z,72.50
2018-02-08T17:56:09.078Z,72.68
2018-02-08T17:58:36.567Z,72.53
2018-02-08T18:01:03.941Z,72.81
2018-02-08T18:03:45.028Z,72.98
2018-02-08T18:06:12.490Z,72.98
2018-02-08T18:08:39.870Z,72.75
2018-02-08T18:11:07.313Z,73.17
2018-02-08T18:13:34.733Z,72.72
2018-02-08T18:16:02.232Z,72.67
2018-02-08T18:18:29.633Z,72.68
2018-02-08T18:20:57.056Z,72.81
2018-02-08T18:23:24.485Z,73.04
2018-02-08T18:25:51.921Z,72.62
2018-02-08T18:28:19.406Z,72.30
2018-02-08T18:30:46.840Z,72.22
2018-02-08T18:33:14.250Z,72.26
2018-02-08T18:35:41.685Z,72.12
2018-02-08T18:38:09.112Z,72.20
2018-02-08T18:40:36.537Z,72.27
2018-02-08T18:43:03.945Z,71.90
2018-02-08T18:45:31.414Z,71.51
2018-02-08T18:47:58.813Z,71.36
2018-02-08T18:50:26.264Z,71.40
2018-02-08T18:52:53.705Z,71.26
2018-02-08T18:55:21.192Z,71.00
2018-02-08T18:57:50.297Z,70.49
2018-02-08T19:00:18.397Z,70.48
2018-02-08T19:02:46.617Z,71.04
2018-02-08T19:05:14.051Z,71.58
2018-02-08T19:07:41.508Z,71.68
2018-02-08T19:10:08.937Z,72.42
2018-02-08T19:12:36.357Z,72.74
2018-02-08T19:15:03.864Z,72.68
2018-02-08T19:17:45.309Z,72.50
2018-02-08T19:20:12.756Z,72.43
2018-02-08T19:22:41.697Z,72.76
2018-02-08T19:25:09.139Z,72.69
2018-02-08T19:27:36.557Z,73.10
2018-02-08T19:30:04.437Z,73.31
2018-02-08T19:32:31.898Z,73.43
2018-02-08T19:34:59.930Z,73.39
2018-02-08T19:37:28.814Z,73.74
2018-02-08T19:39:56.848Z,73.90
2018-02-08T19:42:25.087Z,73.98
2018-02-08T19:44:53.225Z,74.22
2018-02-08T19:47:21.463Z,74.47
2018-02-08T19:49:50.176Z,74.95
2018-02-08T19:52:18.508Z,74.96
2018-02-08T19:54:45.971Z,75.55
2018-02-08T19:57:14.324Z,76.28
2018-02-08T19:59:47.571Z,76.11
2018-02-08T20:02:16.928Z,75.92
2018-02-08T20:04:45.137Z,76.72
2018-02-08T20:07:13.922Z,76.51
2018-02-08T20:09:41.411Z,76.28
2018-02-08T20:12:09.788Z,76.27
2018-02-08T20:14:52.660Z,76.27
2018-02-08T20:17:20.968Z,76.29
2018-02-08T20:19:48.390Z,76.61
2018-02-08T20:22:15.828Z,76.57
2018-02-08T20:24:44.324Z,77.02
2018-02-08T20:27:11.756Z,77.31
2018-02-08T20:29:39.185Z,77.18
2018-02-08T20:32:06.649Z,76.74
2018-02-08T20:34:34.094Z,76.54
2018-02-08T20:37:01.532Z,76.45
2018-02-08T20:39:28.988Z,77.02
2018-02-08T20:41:56.403Z,76.97
2018-02-08T20:44:23.821Z,76.88
2018-02-08T20:46:51.245Z,76.76
2018-02-08T20:49:18.677Z,76.45
2018-02-08T20:51:46.103Z,76.58
2018-02-08T20:54:13.513Z,76.92
2018-02-08T20:56:40.990Z,77.02
2018-02-08T20:59:08.438Z,77.11
2018-02-08T21:01:35.865Z,77.34
2018-02-08T21:04:03.322Z,77.38
2018-02-08T21:06:30.741Z,77.53
2018-02-08T21:08:58.157Z,77.58
2018-02-08T21:11:25.625Z,77.78
2018-02-08T21:13:53.084Z,77.92
2018-02-08T21:16:20.515Z,77.88
2018-02-08T21:18:47.941Z,78.08
2018-02-08T21:21:15.372Z,77.95
2018-02-08T21:23:42.821Z,78.57
2018-02-08T21:26:10.254Z,78.67
2018-02-08T21:28:37.693Z,78.36
2018-02-08T21:31:05.153Z,78.61
2018-02-08T21:33:32.581Z,78.96
2018-02-08T21:36:00.050Z,79.11
2018-02-08T21:38:27.485Z,79.22
2018-02-08T21:40:54.930Z,79.55
2018-02-08T21:43:22.373Z,79.16
2018-02-08T21:45:49.792Z,79.06
2018-02-08T21:48:17.240Z,79.01
2018-02-08T21:50:44.671Z,78.93
2018-02-08T21:53:12.088Z,79.18
2018-02-08T21:55:39.504Z,79.49
2018-02-08T21:58:06.953Z,79.52
2018-02-08T22:00:34.365Z,79.83
2018-02-08T22:03:01.832Z,80.05
2018-02-08T22:05:29.272Z,80.13
2018-02-08T22:07:56.706Z,80.21
2018-02-08T22:10:24.125Z,80.52
2018-02-08T22:12:51.556Z,80.49
2018-02-08T22:15:18.996Z,80.80
2018-02-08T22:17:46.460Z,80.59
2018-02-08T22:20:13.881Z,80.70
2018-02-08T22:22:41.335Z,80.74
2018-02-08T22:25:08.741Z,80.82
2018-02-08T22:27:36.173Z,80.74
2018-02-08T22:30:03.648Z,80.80
2018-02-08T22:32:31.065Z,80.81
2018-02-08T22:34:58.493Z,80.84
2018-02-08T22:37:25.901Z,81.18
2018-02-08T22:39:53.344Z,81.10
2018-02-08T22:42:20.807Z,80.97
2018-02-08T22:44:48.245Z,81.02
2018-02-08T22:47:15.662Z,81.17
2018-02-08T22:49:43.080Z,81.35
2018-02-08T22:52:10.505Z,81.46
2018-02-08T22:54:37.937Z,81.36
2018-02-08T22:57:05.365Z,81.26
2018-02-08T22:59:32.789Z,81.46
2018-02-08T23:02:00.220Z,81.36
2018-02-08T23:04:27.646Z,81.52
2018-02-08T23:06:55.070Z,81.41
2018-02-08T23:09:22.499Z,81.89
2018-02-08T23:11:49.917Z,82.08
2018-02-08T23:14:17.358Z,82.37
2018-02-08T23:16:44.832Z,82.45
2018-02-08T23:19:12.252Z,82.40
2018-02-08T23:21:39.685Z,82.35
2018-02-08T23:24:07.110Z,82.46
2018-02-08T23:26:34.556Z,82.53
2018-02-08T23:29:01.980Z,82.51
2018-02-08T23:31:29.405Z,82.79
2018-02-08T23:33:56.866Z,82.83
2018-02-08T23:36:24.294Z,82.91
2018-02-08T23:38:51.720Z,83.27
2018-02-08T23:41:19.168Z,83.17
2018-02-08T23:43:46.616Z,83.56
2018-02-08T23:46:14.038Z,83.67
2018-02-08T23:48:41.466Z,83.58
2018-02-08T23:51:08.905Z,83.54
2018-02-08T23:53:36.369Z,83.29
2018-02-08T23:56:03.800Z,83.20
2018-02-08T23:58:31.243Z,83.47
